Pagrindinis puslapis
METAR-TAF:

METAR-TAF

Oro uostai :

Kolombas, Šri Lanka

platuma: 07-10N, ilguma: 079-53E, Aukštis: 8 m

Dabartinis oras

Ataskaita buvo paskelbta 37 minutes, ne 14:10 UTC
Vėjas 7 kt iš Pietvakarių
Temperatūra 28°C
Drėgmė 84%
Slėgis 1009 hPa
Matomumas 10 km arba daugiau
Mažai debesys ne aukštis 1300 ft
Išsisklaidę debesys ne aukštis 1700 ft

METAR: VCBI 171410Z 23007KT 9999 FEW013 SCT017 28/25 Q1009 NOSIG

Laikas: 20:17 (14:47 UTC)

Prognozė

Ataskaita buvo paskelbta 3 valandos ir 47 minutes, ne 11:00 UTC
Prognozė galioja nuo 17 metu 12 UTC su 18 metu 18 UTC
Vėjas 7 kt iš Vakarų/Pietvakarių
Matomumas 10 km arba daugiau
Išsisklaidę debesys ne aukštis 1600 ft
Tikimybė 30% :
Laikinai
nuo 17 metu 12 UTC su 17 metu 15 UTC
Matomumas: 7000 m
Mažai debesys ne aukštis 1200 ft
Su prošvaistėmis ne aukštis 1400 ft
Mažai debesys ne aukštis 2000 ft, Liūtiniai kamuoliniai debesys.

TAF: VCBI 171100Z 1712/1818 25007KT 9999 SCT016 TX30/1808Z TN27/1800Z PROB30 TEMPO 1712/1715 1800/1804 7000 -TSRA/SHRA FEW012 BKN014 FEW020CB

Orai ataskaitas ir orų prognozės (METAR, TAF).

turimą stotys yra geltonos ir raudonos taškus žemėlapyje.

Perkelti pele per norėdami pamatyti stoties vardą.

Tada spustelėkite, norėdami matyti oro stebėjimo ir prognozės.

Norėdami pakeisti žemėlapį: spustelėkite ant žalios mygtukų su juodo kryžiaus žemyn,; žalią mygtuką su brūkšneliu, jei norite nutolinti; arba žalių rodyklių gretimoms žemėlapius.


METAR-TAF: